Time;durP1;ratioP1;P1;durP2;ratioP2;P2;SDS_P1;SDS_P2;PMS_P1;PMS_P2;Temp;Humidity;BMP_temperature;BMP_pressure;BME280_temperature;BME280_humidity;BME280_pressure;Samples;Min_cycle;Max_cycle;Signal;HPM_P1;HPM_P2
2021/08/29 04:02:34;;;;;;;8.40;6.40;;;9.60;96.30;;;;;;4983916;28;20479;-78
2021/08/29 04:05:00;;;;;;;7.00;6.30;;;9.70;96.30;;;;;;4977994;28;20421;-77
2021/08/29 04:07:26;;;;;;;7.00;6.30;;;9.80;96.30;;;;;;4974661;28;20225;-78
2021/08/29 04:09:53;;;;;;;6.83;5.90;;;9.90;96.30;;;;;;4974857;28;20186;-78
2021/08/29 04:12:19;;;;;;;6.60;5.80;;;9.90;96.30;;;;;;4991836;28;20421;-78
2021/08/29 04:14:46;;;;;;;4.37;4.07;;;9.80;96.30;;;;;;5013363;23;20917;-74
2021/08/29 04:17:14;;;;;;;6.97;4.10;;;9.70;96.30;;;;;;4974398;28;20458;-74
2021/08/29 04:19:42;;;;;;;5.47;4.97;;;9.70;96.30;;;;;;4974386;28;20917;-74
2021/08/29 04:22:09;;;;;;;5.77;5.27;;;9.70;96.30;;;;;;4973960;28;20413;-74
2021/08/29 04:24:35;;;;;;;6.43;4.03;;;9.70;96.30;;;;;;4974423;28;20466;-75
2021/08/29 04:27:00;;;;;;;9.87;6.50;;;9.70;96.30;;;;;;4974355;28;20425;-74
2021/08/29 04:29:26;;;;;;;6.27;4.97;;;9.80;96.30;;;;;;4974376;28;20822;-73
2021/08/29 04:31:56;;;;;;;5.60;5.10;;;9.90;96.30;;;;;;4973264;28;20657;-74
2021/08/29 04:34:22;;;;;;;13.20;5.70;;;9.90;96.30;;;;;;4974314;28;20173;-73
2021/08/29 04:36:48;;;;;;;10.47;5.30;;;9.80;96.30;;;;;;4974087;28;20458;-74
2021/08/29 04:39:13;;;;;;;10.57;6.27;;;9.90;96.30;;;;;;4973984;28;20171;-74
2021/08/29 04:41:39;;;;;;;5.73;4.90;;;9.90;96.30;;;;;;4973734;28;20670;-74
2021/08/29 04:44:05;;;;;;;7.83;6.90;;;10.00;96.30;;;;;;4973993;28;20234;-74
2021/08/29 04:46:31;;;;;;;7.90;6.87;;;10.00;96.30;;;;;;4973984;28;20186;-75
2021/08/29 04:48:57;;;;;;;15.53;7.10;;;10.10;96.30;;;;;;4973634;28;20708;-73
2021/08/29 04:51:22;;;;;;;7.63;6.63;;;10.20;96.30;;;;;;4973399;28;20260;-74
2021/08/29 04:53:48;;;;;;;7.77;7.07;;;10.20;96.30;;;;;;4973869;28;20217;-74
2021/08/29 04:56:13;;;;;;;7.43;5.37;;;10.30;96.30;;;;;;4973723;28;20289;-74
2021/08/29 04:58:39;;;;;;;5.80;5.30;;;10.30;96.30;;;;;;4973859;28;20199;-73
2021/08/29 05:01:04;;;;;;;5.93;5.33;;;10.30;96.30;;;;;;4973068;28;20182;-73
2021/08/29 05:03:30;;;;;;;6.73;6.03;;;10.30;96.30;;;;;;4973841;28;20253;-74
2021/08/29 05:05:57;;;;;;;6.23;5.63;;;10.30;96.30;;;;;;4973463;28;20194;-74
2021/08/29 05:08:22;;;;;;;7.60;6.43;;;10.40;96.30;;;;;;4973688;28;20166;-74
2021/08/29 05:10:48;;;;;;;6.10;5.50;;;10.30;96.30;;;;;;4973496;28;20410;-74
2021/08/29 05:13:13;;;;;;;6.83;5.90;;;10.40;96.30;;;;;;4973185;28;20170;-74
2021/08/29 05:15:39;;;;;;;8.03;5.13;;;10.40;96.30;;;;;;4973346;28;20288;-73
2021/08/29 05:18:04;;;;;;;7.80;5.20;;;10.50;96.30;;;;;;4973299;28;20559;-74
2021/08/29 05:20:30;;;;;;;6.23;5.63;;;10.50;96.30;;;;;;4973505;28;20174;-74
2021/08/29 05:22:55;;;;;;;6.17;5.57;;;10.50;96.30;;;;;;4972523;28;20670;-74
2021/08/29 05:25:21;;;;;;;8.23;6.63;;;10.50;96.30;;;;;;4976375;28;20319;-73
2021/08/29 05:27:46;;;;;;;7.50;5.23;;;10.50;96.30;;;;;;4992847;28;20174;-74
2021/08/29 05:30:12;;;;;;;10.37;7.20;;;10.50;96.30;;;;;;4992587;28;20193;-73
2021/08/29 05:32:38;;;;;;;9.77;6.80;;;10.60;96.30;;;;;;4992192;28;20181;-74
2021/08/29 05:35:04;;;;;;;9.13;7.00;;;10.60;96.30;;;;;;4992534;28;20225;-73
2021/08/29 05:37:29;;;;;;;6.83;6.03;;;10.70;96.30;;;;;;4992620;28;20381;-74
2021/08/29 05:39:55;;;;;;;7.53;6.83;;;10.70;96.30;;;;;;4992550;28;20550;-74
2021/08/29 05:42:20;;;;;;;6.97;5.63;;;10.80;96.30;;;;;;4992099;28;20228;-74
2021/08/29 05:44:46;;;;;;;6.80;5.83;;;10.80;96.30;;;;;;4991635;28;20204;-74
2021/08/29 05:47:11;;;;;;;6.13;5.53;;;10.80;96.30;;;;;;4992517;28;20181;-74
2021/08/29 05:49:37;;;;;;;7.80;6.37;;;10.80;96.30;;;;;;4992466;28;20526;-73
2021/08/29 05:52:03;;;;;;;9.90;6.87;;;10.90;96.30;;;;;;4991910;28;20316;-74
2021/08/29 05:54:28;;;;;;;8.90;8.00;;;11.00;96.30;;;;;;4992425;28;20181;-74
2021/08/29 05:56:54;;;;;;;9.57;8.40;;;11.10;96.30;;;;;;4992257;28;20205;-75
2021/08/29 05:59:19;;;;;;;13.50;9.20;;;11.20;96.30;;;;;;4992521;28;20681;-74
2021/08/29 06:01:44;;;;;;;11.40;8.00;;;11.20;96.30;;;;;;4982886;28;20170;-74
2021/08/29 06:04:10;;;;;;;16.13;9.27;;;11.40;96.30;;;;;;4992078;28;20202;-74
2021/08/29 06:06:35;;;;;;;9.30;8.20;;;11.50;96.30;;;;;;4992186;28;20251;-75
2021/08/29 06:09:03;;;;;;;10.33;8.27;;;11.70;96.30;;;;;;4992304;28;20661;-74
2021/08/29 06:11:28;;;;;;;10.30;6.23;;;11.90;96.30;;;;;;4991720;28;20256;-74
2021/08/29 06:13:56;;;;;;;9.70;6.30;;;11.90;96.30;;;;;;4992224;28;20512;-75
2021/08/29 06:16:22;;;;;;;6.40;5.80;;;11.80;96.30;;;;;;4991065;28;20252;-74
2021/08/29 06:18:48;;;;;;;6.90;6.00;;;11.80;96.30;;;;;;4991486;28;20415;-74
2021/08/29 06:21:13;;;;;;;7.97;6.60;;;11.80;96.30;;;;;;4991370;28;20405;-75
2021/08/29 06:23:39;;;;;;;8.40;5.90;;;11.80;96.30;;;;;;4991810;28;20232;-75
2021/08/29 06:26:04;;;;;;;6.80;6.00;;;11.70;96.30;;;;;;4991474;28;20212;-75
2021/08/29 06:28:30;;;;;;;6.43;5.67;;;11.80;96.30;;;;;;4991514;28;20178;-75
2021/08/29 06:30:55;;;;;;;6.87;6.20;;;11.90;96.30;;;;;;4982061;28;20198;-75
2021/08/29 06:33:21;;;;;;;6.90;6.20;;;11.90;96.30;;;;;;4971546;28;20217;-75
2021/08/29 06:35:46;;;;;;;5.80;5.30;;;11.90;96.30;;;;;;4972740;28;20700;-75
2021/08/29 06:38:12;;;;;;;7.13;5.57;;;12.00;96.30;;;;;;4968839;28;20209;-75
2021/08/29 06:40:37;;;;;;;6.87;6.17;;;12.00;96.30;;;;;;4971333;28;20189;-75
2021/08/29 06:43:03;;;;;;;7.57;6.53;;;12.10;96.30;;;;;;4970362;28;20622;-75
2021/08/29 06:45:28;;;;;;;6.93;6.23;;;12.20;96.30;;;;;;4972116;28;20205;-75
2021/08/29 06:47:54;;;;;;;8.00;6.83;;;12.40;96.30;;;;;;4971490;28;20190;-75
2021/08/29 06:50:19;;;;;;;6.70;6.10;;;12.40;96.30;;;;;;4959911;28;20183;-74
2021/08/29 06:52:45;;;;;;;6.60;6.00;;;12.60;96.30;;;;;;4971445;28;20182;-74
2021/08/29 06:55:10;;;;;;;9.27;6.10;;;12.70;96.30;;;;;;4972970;28;20662;-74
2021/08/29 06:57:36;;;;;;;10.60;6.30;;;12.80;96.30;;;;;;4963746;28;20675;-74
2021/08/29 07:00:03;;;;;;;5.87;5.33;;;12.90;96.30;;;;;;4971902;28;20170;-74
2021/08/29 07:02:28;;;;;;;6.80;6.20;;;12.90;96.30;;;;;;4954063;28;20179;-74
2021/08/29 07:04:54;;;;;;;5.80;5.30;;;13.00;96.30;;;;;;4974729;28;20444;-74
2021/08/29 07:07:19;;;;;;;6.23;5.63;;;13.00;96.30;;;;;;4974378;28;20665;-74
2021/08/29 07:09:45;;;;;;;6.13;5.53;;;13.00;96.30;;;;;;4975278;28;20171;-74
2021/08/29 07:12:11;;;;;;;8.13;7.43;;;13.00;96.30;;;;;;4974147;28;20177;-72
2021/08/29 07:14:37;;;;;;;7.63;6.87;;;13.10;96.30;;;;;;4974616;28;20171;-73
2021/08/29 07:17:03;;;;;;;6.00;5.40;;;13.10;96.30;;;;;;4974971;28;20536;-73
2021/08/29 07:19:28;;;;;;;7.20;6.50;;;13.20;96.30;;;;;;4975216;28;20178;-73
2021/08/29 07:21:54;;;;;;;6.90;6.20;;;13.10;96.30;;;;;;4974643;28;20521;-74
2021/08/29 07:24:20;;;;;;;8.60;7.80;;;13.30;96.30;;;;;;4968928;28;20233;-74
2021/08/29 07:26:45;;;;;;;7.30;6.57;;;13.50;96.30;;;;;;4984948;28;20277;-74
2021/08/29 07:29:11;;;;;;;10.70;8.00;;;13.70;96.30;;;;;;4975271;28;20170;-75
2021/08/29 07:31:36;;;;;;;8.10;7.13;;;14.10;96.30;;;;;;4973691;28;20674;-75
2021/08/29 07:34:02;;;;;;;10.00;6.93;;;14.20;96.30;;;;;;4974909;28;20201;-75
2021/08/29 07:36:28;;;;;;;7.47;5.77;;;14.30;96.30;;;;;;4975286;28;20265;-75
2021/08/29 07:38:53;;;;;;;5.53;4.93;;;14.40;96.30;;;;;;4975100;28;20206;-75
2021/08/29 07:41:19;;;;;;;5.60;5.10;;;14.30;96.30;;;;;;4974476;28;20706;-75
2021/08/29 07:43:44;;;;;;;8.30;4.90;;;14.20;96.30;;;;;;4974946;28;20182;-75
2021/08/29 07:46:10;;;;;;;5.87;5.30;;;14.30;96.30;;;;;;4974505;28;20202;-74
2021/08/29 07:48:36;;;;;;;5.93;5.50;;;14.40;96.30;;;;;;4974709;28;20209;-74
2021/08/29 07:51:01;;;;;;;5.43;4.93;;;14.40;96.30;;;;;;4974366;28;20234;-74
2021/08/29 07:53:27;;;;;;;6.10;5.50;;;14.40;96.30;;;;;;4975085;28;20405;-74
2021/08/29 07:55:53;;;;;;;7.77;5.70;;;14.50;96.30;;;;;;4974797;28;20202;-75
2021/08/29 07:58:18;;;;;;;6.10;5.50;;;14.50;96.30;;;;;;4974652;28;20261;-74
2021/08/29 08:00:44;;;;;;;5.90;5.40;;;14.60;96.30;;;;;;4974980;28;20584;-74
2021/08/29 08:03:09;;;;;;;5.67;5.17;;;14.80;96.30;;;;;;4974078;28;20399;-73
2021/08/29 08:05:35;;;;;;;6.20;5.60;;;14.80;96.30;;;;;;4973953;28;20245;-74
2021/08/29 08:08:01;;;;;;;5.40;5.00;;;15.20;96.30;;;;;;4973783;28;20602;-74
2021/08/29 08:10:28;;;;;;;5.10;4.70;;;15.50;96.30;;;;;;4974250;28;20273;-75
2021/08/29 08:12:54;;;;;;;4.60;4.13;;;15.80;96.30;;;;;;4976301;28;20197;-76
2021/08/29 08:15:19;;;;;;;5.10;4.60;;;16.30;96.30;;;;;;4982613;28;20486;-74
2021/08/29 08:17:45;;;;;;;5.10;4.70;;;16.60;96.30;;;;;;4993473;28;20580;-74
2021/08/29 08:20:11;;;;;;;7.37;4.63;;;16.00;96.30;;;;;;4993957;28;20166;-74
2021/08/29 08:22:37;;;;;;;5.20;4.70;;;16.20;96.30;;;;;;4993327;28;20249;-74
2021/08/29 08:25:03;;;;;;;4.97;4.57;;;16.40;96.30;;;;;;4993752;28;20515;-73
2021/08/29 08:27:28;;;;;;;4.33;3.90;;;16.60;96.30;;;;;;4993620;28;20634;-74
2021/08/29 08:29:54;;;;;;;4.03;3.50;;;16.30;96.30;;;;;;4993857;28;20429;-74
2021/08/29 08:32:19;;;;;;;4.80;4.40;;;16.20;96.30;;;;;;4993123;28;20178;-74
2021/08/29 08:34:45;;;;;;;4.93;4.53;;;16.40;96.30;;;;;;4975036;28;20682;-74
2021/08/29 08:37:10;;;;;;;5.40;4.80;;;16.30;96.30;;;;;;4973427;28;20293;-74
2021/08/29 08:39:36;;;;;;;5.00;4.50;;;16.40;96.30;;;;;;4973531;28;20170;-75
2021/08/29 08:42:01;;;;;;;4.77;4.37;;;16.40;96.30;;;;;;4973409;28;20547;-75
2021/08/29 08:44:27;;;;;;;4.60;4.20;;;16.40;96.30;;;;;;4973921;28;20217;-75
2021/08/29 08:46:56;;;;;;;4.73;4.23;;;16.40;96.30;;;;;;4974022;28;20178;-76
2021/08/29 08:49:23;;;;;;;4.63;4.23;;;16.70;96.30;;;;;;4956312;28;20193;-75
2021/08/29 08:51:51;;;;;;;4.90;4.40;;;16.90;96.30;;;;;;4973249;28;20409;-75
2021/08/29 08:54:17;;;;;;;5.47;4.97;;;16.40;96.30;;;;;;4973734;28;20420;-75
2021/08/29 08:56:43;;;;;;;5.07;4.20;;;15.90;96.30;;;;;;4973644;28;20457;-74
2021/08/29 08:59:09;;;;;;;5.80;4.33;;;15.70;96.30;;;;;;4973965;28;20469;-75
2021/08/29 09:01:34;;;;;;;4.73;4.33;;;15.90;96.30;;;;;;4973160;28;20822;-76
2021/08/29 09:04:01;;;;;;;4.30;4.00;;;16.20;96.30;;;;;;4973338;28;20230;-77
2021/08/29 09:06:27;;;;;;;4.50;4.10;;;16.40;96.30;;;;;;4973570;28;20696;-76
2021/08/29 09:08:53;;;;;;;4.13;3.83;;;16.40;96.30;;;;;;4973646;28;20492;-77
2021/08/29 09:11:18;;;;;;;4.23;3.83;;;16.50;96.30;;;;;;4973055;28;20508;-76
2021/08/29 09:13:46;;;;;;;5.33;3.80;;;16.50;96.30;;;;;;4973859;28;20638;-77
2021/08/29 09:16:14;;;;;;;6.20;3.67;;;16.60;96.30;;;;;;4973142;28;20213;-77
2021/08/29 09:18:50;;;;;;;3.97;3.67;;;16.60;96.30;;;;;;4973314;28;20414;-77
2021/08/29 09:21:24;;;;;;;4.40;4.00;;;16.60;96.30;;;;;;4972793;28;20517;-77
2021/08/29 09:23:50;;;;;;;4.30;3.90;;;16.40;96.30;;;;;;4973606;28;20758;-77
2021/08/29 09:26:18;;;;;;;4.13;3.80;;;16.20;96.30;;;;;;4973427;28;20429;-77
2021/08/29 09:28:46;;;;;;;5.40;4.43;;;16.10;96.30;;;;;;4973551;28;20476;-77
2021/08/29 09:31:12;;;;;;;5.00;4.50;;;16.00;96.30;;;;;;4972744;28;20493;-77
2021/08/29 09:33:37;;;;;;;4.70;4.30;;;16.30;96.30;;;;;;4973079;28;20458;-76
2021/08/29 09:36:03;;;;;;;4.50;4.10;;;16.40;96.30;;;;;;4972953;28;20650;-77
2021/08/29 09:38:37;;;;;;;6.67;4.63;;;16.60;96.30;;;;;;4973024;28;20170;-76
2021/08/29 09:41:03;;;;;;;4.20;3.80;;;16.70;96.30;;;;;;4972335;28;20170;-76
2021/08/29 09:43:36;;;;;;;5.17;4.77;;;16.90;96.30;;;;;;4973024;28;20414;-76
2021/08/29 09:46:08;;;;;;;4.50;4.10;;;16.90;96.30;;;;;;4972890;28;20198;-76
2021/08/29 09:48:34;;;;;;;9.83;4.00;;;17.20;96.30;;;;;;4973124;28;20553;-75
2021/08/29 09:50:59;;;;;;;4.50;4.10;;;16.90;96.30;;;;;;4972604;28;20559;-75
2021/08/29 09:53:25;;;;;;;4.50;4.10;;;17.10;96.30;;;;;;4980284;28;20177;-75
2021/08/29 09:55:51;;;;;;;4.87;4.47;;;17.40;96.30;;;;;;4992084;28;20201;-75
2021/08/29 09:58:20;;;;;;;4.57;4.20;;;17.60;96.30;;;;;;4992512;28;20201;-75
2021/08/29 10:01:14;;;;;;;5.17;4.67;;;17.60;96.30;;;;;;4992155;28;20173;-75
2021/08/29 10:03:51;;;;;;;4.77;4.37;;;17.60;96.30;;;;;;4992240;28;20420;-74
2021/08/29 10:06:22;;;;;;;4.97;4.30;;;18.20;96.30;;;;;;4992514;28;20483;-75
2021/08/29 10:08:50;;;;;;;4.30;3.90;;;18.10;96.30;;;;;;4992514;28;20420;-76
2021/08/29 10:11:17;;;;;;;4.53;4.13;;;18.30;96.30;;;;;;4991673;28;20922;-76
2021/08/29 10:13:42;;;;;;;3.90;3.50;;;18.30;96.30;;;;;;4992369;28;20423;-76
2021/08/29 10:16:09;;;;;;;4.13;3.83;;;18.40;96.30;;;;;;4974696;28;20584;-75
2021/08/29 10:18:42;;;;;;;4.30;3.70;;;18.50;96.30;;;;;;4978868;28;20171;-74
2021/08/29 10:21:13;;;;;;;4.63;3.87;;;18.40;96.30;;;;;;4978367;29;20415;-74
2021/08/29 10:23:45;;;;;;;4.33;3.93;;;18.70;96.30;;;;;;4977701;28;20453;-75
2021/08/29 10:26:13;;;;;;;4.70;3.50;;;19.10;96.30;;;;;;4992239;28;20996;-76
2021/08/29 10:28:47;;;;;;;4.40;4.00;;;19.30;96.30;;;;;;5002555;28;20900;-75
2021/08/29 10:31:17;;;;;;;3.73;3.43;;;19.60;96.30;;;;;;5004077;28;20499;-75
2021/08/29 10:33:49;;;;;;;3.83;3.50;;;19.70;96.30;;;;;;4999768;28;20405;-76
2021/08/29 10:36:19;;;;;;;4.00;3.70;;;20.20;96.30;;;;;;4995929;28;20786;-76
2021/08/29 10:38:47;;;;;;;4.17;3.77;;;20.00;96.30;;;;;;4995989;28;20413;-76
2021/08/29 10:41:16;;;;;;;3.93;3.57;;;19.70;96.30;;;;;;4995465;28;20928;-75
2021/08/29 10:43:43;;;;;;;3.73;3.43;;;19.80;96.30;;;;;;4995858;28;20920;-76
2021/08/29 10:46:10;;;;;;;3.17;2.97;;;19.70;96.30;;;;;;4995858;28;20524;-75
2021/08/29 10:48:39;;;;;;;3.50;3.20;;;19.90;96.30;;;;;;4995790;28;20413;-76
2021/08/29 10:51:07;;;;;;;3.47;3.17;;;20.20;96.30;;;;;;4985085;28;20844;-76
2021/08/29 10:53:39;;;;;;;3.80;3.50;;;20.60;96.30;;;;;;4974944;28;20504;-76
2021/08/29 10:56:14;;;;;;;9.40;3.10;;;21.00;96.30;;;;;;4972986;28;20437;-76
2021/08/29 10:58:40;;;;;;;2.77;2.57;;;21.30;96.30;;;;;;4974571;28;20912;-75
2021/08/29 11:01:45;;;;;;;2.63;2.43;;;20.40;95.40;;;;;;4962475;28;20458;-75
2021/08/29 11:04:25;;;;;;;3.20;2.90;;;20.30;96.30;;;;;;4956593;29;20238;-74
2021/08/29 11:06:58;;;;;;;4.90;2.70;;;19.90;96.30;;;;;;4956731;29;20410;-74
2021/08/29 11:09:32;;;;;;;2.70;2.50;;;19.90;96.30;;;;;;4956959;29;20477;-75
2021/08/29 11:11:59;;;;;;;2.30;2.10;;;20.20;96.30;;;;;;4956048;29;20953;-75
2021/08/29 11:14:47;;;;;;;2.70;2.50;;;20.10;96.30;;;;;;4955606;29;20800;-75
2021/08/29 11:17:17;;;;;;;3.10;2.90;;;20.00;96.30;;;;;;4956195;29;20442;-74
2021/08/29 11:19:49;;;;;;;3.30;3.00;;;19.40;96.30;;;;;;4956513;29;20413;-74
2021/08/29 11:22:20;;;;;;;2.70;2.50;;;19.20;96.30;;;;;;4955785;29;20776;-74
2021/08/29 11:24:49;;;;;;;2.73;2.53;;;19.00;96.30;;;;;;4956266;29;20430;-75
2021/08/29 11:27:33;;;;;;;3.27;3.07;;;19.40;96.30;;;;;;4992672;28;20783;-75
2021/08/29 11:29:58;;;;;;;2.80;2.60;;;19.80;96.30;;;;;;4995000;28;20405;-74
2021/08/29 11:32:44;;;;;;;3.90;3.00;;;20.10;96.30;;;;;;4994015;28;20413;-74
2021/08/29 11:35:20;;;;;;;2.90;2.60;;;19.90;96.30;;;;;;4994964;28;20209;-74
2021/08/29 11:38:05;;;;;;;3.23;2.73;;;19.30;96.30;;;;;;4994746;28;20555;-74
2021/08/29 11:40:53;;;;;;;3.00;2.70;;;19.00;96.30;;;;;;4994583;28;20424;-74
2021/08/29 11:43:40;;;;;;;6.07;2.73;;;18.90;96.30;;;;;;4993418;28;20453;-74
2021/08/29 11:46:22;;;;;;;2.70;2.50;;;19.00;96.30;;;;;;4994530;28;20447;-74
2021/08/29 11:49:03;;;;;;;3.00;2.37;;;19.20;96.30;;;;;;4994743;28;20437;-74
2021/08/29 11:51:39;;;;;;;2.27;2.07;;;19.60;96.30;;;;;;4994055;28;20496;-75
2021/08/29 11:54:07;;;;;;;2.60;2.40;;;20.50;96.30;;;;;;4994375;28;20409;-74
2021/08/29 11:56:34;;;;;;;4.77;2.80;;;20.80;96.30;;;;;;4994369;28;20448;-74
2021/08/29 11:59:02;;;;;;;4.07;2.40;;;21.60;96.30;;;;;;4994280;28;20404;-75
2021/08/29 12:01:32;;;;;;;2.50;2.30;;;21.60;96.30;;;;;;4993982;28;20877;-74
2021/08/29 12:04:00;;;;;;;4.60;2.30;;;22.00;96.30;;;;;;4994336;28;20471;-75
2021/08/29 12:06:32;;;;;;;1.83;1.60;;;22.20;96.30;;;;;;4964484;28;20453;-75
2021/08/29 12:09:03;;;;;;;1.63;1.53;;;22.30;89.50;;;;;;4965144;28;20464;-75
2021/08/29 12:11:34;;;;;;;1.70;1.60;;;22.40;93.90;;;;;;4972491;28;20416;-75
2021/08/29 12:14:20;;;;;;;2.47;1.87;;;21.80;86.60;;;;;;4971108;28;20819;-74
2021/08/29 12:16:57;;;;;;;1.60;1.50;;;21.00;95.50;;;;;;4969343;28;20445;-75
2021/08/29 12:19:34;;;;;;;2.70;2.10;;;21.00;96.30;;;;;;4972191;28;20409;-74
2021/08/29 12:22:01;;;;;;;2.20;2.00;;;20.70;96.30;;;;;;4973653;28;20402;-73
2021/08/29 12:24:29;;;;;;;1.90;1.60;;;20.30;96.30;;;;;;4974370;28;20501;-76
2021/08/29 12:27:06;;;;;;;2.43;2.23;;;20.10;96.30;;;;;;4989838;28;20513;-74
2021/08/29 12:29:52;;;;;;;1.40;1.30;;;20.30;96.30;;;;;;4994044;28;20408;-75
2021/08/29 12:32:24;;;;;;;1.63;1.43;;;20.20;96.30;;;;;;4993175;28;20413;-75
2021/08/29 12:35:10;;;;;;;2.40;1.80;;;20.20;96.30;;;;;;4993657;28;20421;-75
2021/08/29 12:37:44;;;;;;;2.80;1.47;;;20.00;96.30;;;;;;4993732;28;20978;-74
2021/08/29 12:40:12;;;;;;;1.77;1.60;;;19.70;96.20;;;;;;4993559;28;20405;-74
2021/08/29 12:42:48;;;;;;;1.33;1.23;;;19.80;95.00;;;;;;4992384;28;20409;-74
2021/08/29 12:45:16;;;;;;;2.17;1.67;;;20.20;96.30;;;;;;4993499;28;20467;-74
2021/08/29 12:47:43;;;;;;;1.30;1.20;;;21.20;93.80;;;;;;4992897;28;20907;-74
2021/08/29 12:50:11;;;;;;;5.10;1.50;;;21.90;96.30;;;;;;4993179;28;20511;-74
2021/08/29 12:52:51;;;;;;;1.40;1.27;;;22.30;92.20;;;;;;4983058;28;20788;-74
2021/08/29 12:55:20;;;;;;;1.50;1.40;;;23.10;89.60;;;;;;4973075;28;20441;-74
2021/08/29 12:57:45;;;;;;;1.40;1.30;;;23.50;82.90;;;;;;4973531;28;20461;-74
2021/08/29 13:00:12;;;;;;;1.87;1.23;;;22.80;86.40;;;;;;4973841;28;20422;-75
2021/08/29 13:02:41;;;;;;;2.03;1.23;;;22.20;88.20;;;;;;4972832;28;20174;-75
2021/08/29 13:05:08;;;;;;;1.40;1.30;;;22.10;91.10;;;;;;4975560;28;20879;-75
2021/08/29 13:07:50;;;;;;;2.27;1.60;;;22.30;91.70;;;;;;4973503;28;20414;-75
2021/08/29 13:10:17;;;;;;;2.30;1.40;;;22.30;88.30;;;;;;4973016;28;20421;-75
2021/08/29 13:12:43;;;;;;;1.63;1.40;;;21.50;89.50;;;;;;4973164;28;20464;-76
2021/08/29 13:15:09;;;;;;;3.57;0.90;;;20.90;90.20;;;;;;4973467;28;20453;-75
2021/08/29 13:17:47;;;;;;;1.10;1.00;;;20.60;92.30;;;;;;4972587;28;20282;-76
2021/08/29 13:20:13;;;;;;;1.83;1.10;;;20.50;94.10;;;;;;4973126;28;20173;-76
2021/08/29 13:22:42;;;;;;;2.03;1.40;;;20.50;93.70;;;;;;4972645;28;20771;-75
2021/08/29 13:25:30;;;;;;;1.30;1.10;;;20.40;93.10;;;;;;4974354;28;20186;-76
2021/08/29 13:27:57;;;;;;;1.90;1.27;;;20.10;93.90;;;;;;4992827;28;20481;-75
2021/08/29 13:30:24;;;;;;;1.00;0.90;;;19.60;94.60;;;;;;4976709;28;20422;-76
2021/08/29 13:32:51;;;;;;;1.20;0.97;;;19.40;96.30;;;;;;4972446;28;20417;-74
2021/08/29 13:35:20;;;;;;;1.07;0.87;;;19.40;96.30;;;;;;4972607;28;20953;-75
2021/08/29 13:37:51;;;;;;;1.70;1.30;;;19.60;96.30;;;;;;4973003;28;20544;-74
2021/08/29 13:40:24;;;;;;;1.47;1.30;;;19.60;96.30;;;;;;4973253;28;20425;-74
2021/08/29 13:43:00;;;;;;;1.67;1.30;;;19.40;96.30;;;;;;4972601;28;20766;-74
2021/08/29 13:45:38;;;;;;;2.20;1.57;;;19.00;96.30;;;;;;4973173;28;20436;-74
2021/08/29 13:48:07;;;;;;;2.00;1.60;;;18.70;96.30;;;;;;4955423;28;20976;-74
2021/08/29 13:50:35;;;;;;;1.40;1.30;;;18.50;96.30;;;;;;4972412;28;20414;-74
2021/08/29 13:53:09;;;;;;;1.43;1.33;;;18.60;96.30;;;;;;4972559;28;20421;-74
2021/08/29 13:55:37;;;;;;;2.57;1.50;;;18.40;96.30;;;;;;4955797;28;20454;-74
2021/08/29 13:58:03;;;;;;;5.30;1.80;;;18.10;96.30;;;;;;4955560;28;20457;-74
2021/08/29 14:00:30;;;;;;;2.70;1.70;;;17.80;96.30;;;;;;4972781;28;20738;-74
2021/08/29 14:03:00;;;;;;;1.63;1.40;;;17.90;96.30;;;;;;4972193;28;20402;-74
2021/08/29 14:05:26;;;;;;;1.63;1.53;;;18.10;96.30;;;;;;4971678;28;20434;-74
2021/08/29 14:07:52;;;;;;;1.53;1.43;;;18.30;96.30;;;;;;4972666;28;20436;-74
2021/08/29 14:10:17;;;;;;;1.67;1.57;;;18.80;96.30;;;;;;4987693;28;20406;-75
2021/08/29 14:12:43;;;;;;;1.83;1.43;;;19.40;96.30;;;;;;4972327;28;20273;-74
2021/08/29 14:15:09;;;;;;;1.63;1.53;;;19.70;96.30;;;;;;4972591;28;20218;-74
2021/08/29 14:17:34;;;;;;;1.90;1.70;;;20.20;96.30;;;;;;4987643;28;20210;-74
2021/08/29 14:20:00;;;;;;;1.70;1.60;;;20.60;94.40;;;;;;4972819;28;20747;-75
2021/08/29 14:22:25;;;;;;;3.27;1.87;;;20.40;95.30;;;;;;4971228;28;20178;-74
2021/08/29 14:24:51;;;;;;;1.77;1.67;;;20.00;96.00;;;;;;4971612;28;20325;-75
2021/08/29 14:27:16;;;;;;;2.70;1.47;;;20.30;96.30;;;;;;4975584;28;20529;-74
2021/08/29 14:29:42;;;;;;;1.50;1.40;;;20.60;96.30;;;;;;4972617;28;20182;-75
2021/08/29 14:32:07;;;;;;;4.63;1.30;;;20.80;94.10;;;;;;4973267;28;20318;-75
2021/08/29 14:34:34;;;;;;;1.40;1.30;;;21.40;90.80;;;;;;4971955;28;20201;-75
2021/08/29 14:36:59;;;;;;;1.90;1.30;;;21.20;89.60;;;;;;4972070;28;20206;-75
2021/08/29 14:39:25;;;;;;;1.47;1.37;;;21.50;92.30;;;;;;4972608;28;20417;-75
2021/08/29 14:41:51;;;;;;;2.70;1.73;;;21.10;90.70;;;;;;4971213;28;20245;-74
2021/08/29 14:44:16;;;;;;;2.17;1.00;;;20.50;92.60;;;;;;4972401;28;20179;-75
2021/08/29 14:46:42;;;;;;;1.90;1.20;;;20.10;96.30;;;;;;4972644;28;20209;-74
2021/08/29 14:49:07;;;;;;;1.90;1.40;;;20.30;94.00;;;;;;4972205;28;20557;-74
2021/08/29 14:51:33;;;;;;;1.80;1.50;;;20.10;92.60;;;;;;4953789;28;20174;-74
2021/08/29 14:53:58;;;;;;;4.30;1.40;;;19.80;94.70;;;;;;4973032;28;20651;-74
2021/08/29 14:56:24;;;;;;;3.23;1.30;;;19.30;96.30;;;;;;4971696;28;20225;-74
2021/08/29 14:58:49;;;;;;;1.60;1.30;;;19.50;96.30;;;;;;4970757;28;20685;-75
2021/08/29 15:01:15;;;;;;;3.20;1.40;;;19.70;96.30;;;;;;4971572;28;20647;-75
2021/08/29 15:03:40;;;;;;;2.13;1.27;;;19.40;96.30;;;;;;4971718;28;20174;-75
2021/08/29 15:06:06;;;;;;;1.73;1.20;;;18.90;96.30;;;;;;4971678;28;20209;-75
2021/08/29 15:08:31;;;;;;;1.20;1.10;;;18.70;96.30;;;;;;4954315;28;20217;-76
2021/08/29 15:10:58;;;;;;;2.13;1.30;;;18.40;96.30;;;;;;4971535;28;20206;-75
2021/08/29 15:13:24;;;;;;;1.57;1.20;;;17.90;96.30;;;;;;4972179;28;20254;-74
2021/08/29 15:15:50;;;;;;;1.53;1.40;;;17.80;96.30;;;;;;4972310;28;20544;-74
2021/08/29 15:18:15;;;;;;;1.30;1.20;;;17.80;96.30;;;;;;4972992;28;20557;-74
2021/08/29 15:20:41;;;;;;;1.87;1.53;;;17.90;96.30;;;;;;4972120;28;20234;-76
2021/08/29 15:23:07;;;;;;;1.93;1.30;;;18.10;96.30;;;;;;4974870;28;20173;-75
2021/08/29 15:25:32;;;;;;;1.10;1.00;;;18.30;96.30;;;;;;4979709;28;20607;-75
2021/08/29 15:27:59;;;;;;;1.00;0.90;;;18.50;96.30;;;;;;4977756;28;20541;-75
2021/08/29 15:30:25;;;;;;;3.27;1.27;;;18.50;96.30;;;;;;4994921;28;20186;-75
2021/08/29 15:32:51;;;;;;;1.03;0.90;;;18.40;96.30;;;;;;4994168;28;20457;-74
2021/08/29 15:35:16;;;;;;;1.87;1.10;;;18.20;96.30;;;;;;4994963;28;20198;-74
2021/08/29 15:37:42;;;;;;;1.20;1.10;;;18.20;96.30;;;;;;4994367;28;20296;-74
2021/08/29 15:40:08;;;;;;;1.50;1.03;;;18.10;96.30;;;;;;4993865;28;20177;-73
2021/08/29 15:42:33;;;;;;;1.40;1.30;;;18.10;96.30;;;;;;4993866;28;20208;-74
2021/08/29 15:45:00;;;;;;;1.57;1.00;;;17.90;96.30;;;;;;4994467;28;20944;-77
2021/08/29 15:47:26;;;;;;;1.43;0.90;;;17.80;96.30;;;;;;4994861;28;20174;-75
2021/08/29 15:49:51;;;;;;;1.60;1.40;;;18.00;96.30;;;;;;4994526;28;20416;-74
2021/08/29 15:52:17;;;;;;;1.00;0.90;;;17.90;96.30;;;;;;4994046;28;20784;-75
2021/08/29 15:54:43;;;;;;;1.30;1.20;;;17.70;96.30;;;;;;4994621;28;20202;-75
2021/08/29 15:57:09;;;;;;;3.00;1.17;;;17.40;96.30;;;;;;4994508;28;20511;-74
2021/08/29 15:59:35;;;;;;;1.20;0.90;;;17.20;96.30;;;;;;4994344;28;20174;-75
2021/08/29 16:02:00;;;;;;;1.33;1.17;;;17.10;96.30;;;;;;4987878;28;20429;-74
2021/08/29 16:04:26;;;;;;;2.13;1.20;;;17.00;96.30;;;;;;4988542;28;20186;-75
2021/08/29 16:06:52;;;;;;;1.73;1.30;;;16.90;96.30;;;;;;4994292;28;20257;-75
2021/08/29 16:09:17;;;;;;;1.40;1.00;;;16.70;96.30;;;;;;4992559;28;21081;-75
2021/08/29 16:11:43;;;;;;;1.83;1.20;;;16.60;96.30;;;;;;5002315;23;20230;-77
2021/08/29 16:14:09;;;;;;;1.20;1.10;;;16.50;96.30;;;;;;4974878;28;20519;-77
2021/08/29 16:16:34;;;;;;;6.50;1.20;;;16.40;96.30;;;;;;4974615;28;20618;-76
2021/08/29 16:19:00;;;;;;;2.50;1.03;;;16.30;96.30;;;;;;4974604;28;20174;-76
2021/08/29 16:21:25;;;;;;;1.53;1.10;;;16.20;96.30;;;;;;4974417;28;20190;-77
2021/08/29 16:23:51;;;;;;;1.40;1.20;;;16.10;96.30;;;;;;4989634;28;20701;-77
2021/08/29 16:26:17;;;;;;;1.37;1.13;;;16.00;96.30;;;;;;4974625;28;20555;-76
2021/08/29 16:28:43;;;;;;;1.90;1.20;;;16.00;96.30;;;;;;4973918;28;20253;-76
2021/08/29 16:31:08;;;;;;;1.10;1.00;;;15.80;96.30;;;;;;4973860;28;20194;-76
2021/08/29 16:33:34;;;;;;;3.67;1.10;;;15.80;96.30;;;;;;4963552;28;20912;-76
2021/08/29 16:35:59;;;;;;;1.50;1.10;;;15.80;96.30;;;;;;4972402;28;20186;-76
2021/08/29 16:38:25;;;;;;;2.10;1.27;;;15.60;96.30;;;;;;4957294;28;20693;-76
2021/08/29 16:40:51;;;;;;;3.03;1.40;;;15.50;96.30;;;;;;4959181;28;20713;-76
2021/08/29 16:43:17;;;;;;;1.87;1.07;;;15.40;96.30;;;;;;4956586;28;20410;-76
2021/08/29 16:45:44;;;;;;;1.20;0.97;;;15.30;96.30;;;;;;4973763;28;20182;-77
2021/08/29 16:48:11;;;;;;;2.07;1.17;;;15.20;96.30;;;;;;4973823;28;20171;-76
2021/08/29 16:50:37;;;;;;;1.50;1.40;;;15.10;96.30;;;;;;4965091;28;20441;-76
2021/08/29 16:53:02;;;;;;;1.30;1.20;;;15.10;96.30;;;;;;4953207;29;20509;-75